Data for 10/02/2015

Time Sea-Level Adjusted Pressure Absolute Pressure Temperature Relative Humidity Dew Point   
(mb) (inHg) (mb) (inHg) (C) (F) (%) (C) (F)
00:05 1020 30.12 849 25.07 10.5 51 54 1.7 35.1
00:10 1020 30.12 849 25.07 10.3 50.6 55 1.8 35.3
00:15 1020 30.12 849 25.07 10 50 57 2 35.6
00:20 1020 30.12 849 25.07 9.7 49.5 58 1.9 35.5
00:25 1020 30.12 849 25.07 9.6 49.4 59 2 35.5
00:30 1020 30.12 849 25.07 9.7 49.4 58 1.9 35.4
00:35 1020 30.12 849 25.07 9.6 49.3 59 1.9 35.5
00:40 1020 30.12 849 25.07 9.6 49.2 59 1.9 35.5
00:45 1020 30.12 849 25.07 9.6 49.2 59 1.9 35.4
00:50 1020 30.12 849 25.07 9.4 48.9 60 2.1 35.7
00:55 1020 30.12 849 25.07 9.2 48.5 61 2.1 35.8
01:00 1020 30.12 849 25.07 9 48.2 61 2 35.5
01:05 1020 30.12 849 25.07 9.1 48.4 60 1.8 35.2
01:10 1020 30.12 849 25.07 9.1 48.4 60 1.8 35.2
01:15 1020 30.12 849 25.07 9.1 48.3 60 1.7 35.1
01:20 1019 30.09 849 25.07 9.1 48.3 60 1.7 35.1
01:25 1019 30.09 848 25.04 9.1 48.3 60 1.7 35.1
01:30 1019 30.09 848 25.04 9.1 48.3 60 1.7 35.1
01:35 1019 30.09 848 25.04 9.1 48.3 60 1.7 35
01:40 1019 30.09 848 25.04 9.2 48.5 59 1.6 34.9
01:45 1019 30.09 848 25.04 9.4 48.9 58 1.6 34.9
01:50 1019 30.09 848 25.04 9.5 49 59 1.8 35.3
01:55 1019 30.09 848 25.04 9.5 49.1 60 2.1 35.8
02:00 1019 30.09 849 25.07 9.5 49.1 60 2 35.7
02:05 1019 30.09 849 25.07 9.8 49.6 57 1.6 34.8
02:10 1020 30.12 849 25.07 10.3 50.6 54 1.4 34.6
02:15 1019 30.09 849 25.07 10.8 51.4 53 1.5 34.7
02:20 1019 30.09 849 25.07 11 51.7 52 1.6 35
02:25 1019 30.09 848 25.04 10.6 51 55 1.9 35.4
02:30 1019 30.09 848 25.04 10.1 50.1 58 2.1 35.8
02:35 1019 30.09 848 25.04 9.7 49.4 58 1.9 35.4
02:40 1019 30.09 848 25.04 9.8 49.6 57 1.7 35
02:45 1018 30.06 848 25.04 10.2 50.3 55 1.6 34.8
02:50 1018 30.06 848 25.04 10.4 50.7 55 1.8 35.2
02:55 1018 30.06 847 25.01 10.3 50.6 54 1.5 34.8
03:00 1018 30.06 847 25.01 10.4 50.6 54 1.5 34.6
03:05 1018 30.06 847 25.01 10.4 50.7 54 1.5 34.7
03:10 1018 30.06 847 25.01 10.4 50.7 54 1.5 34.7
03:15 1018 30.06 847 25.01 10.4 50.6 54 1.5 34.8
03:20 1018 30.06 847 25.01 10.3 50.5 55 1.7 35
03:25 1018 30.06 847 25.01 10.2 50.4 55 1.5 34.8
03:30 1018 30.06 847 25.01 10.3 50.5 55 1.5 34.8
03:35 1018 30.06 847 25.01 10.3 50.5 55 1.6 34.8
03:40 1018 30.06 847 25.01 10.4 50.6 55 1.8 35.2
03:45 1018 30.06 847 25.01 10.3 50.5 55 1.8 35.2
03:50 1018 30.06 847 25.01 10.3 50.5 56 1.9 35.4
03:55 1018 30.06 847 25.01 10.2 50.3 57 2 35.6
04:00 1018 30.06 847 25.01 10.1 50.3 57 2.2 35.9
04:05 1018 30.06 847 25.01 10.2 50.3 58 2.3 36.2
04:10 1018 30.06 847 25.01 10.2 50.3 59 2.6 36.6
04:15 1018 30.06 847 25.01 10.1 50.2 60 2.7 36.8
04:20 1018 30.06 847 25.01 9.8 49.6 62 2.8 37
04:25 1018 30.06 847 25.01 9.8 49.6 60 2.5 36.5
04:30 1018 30.06 847 25.01 9.8 49.6 61 2.7 36.9
04:35 1018 30.06 847 25.01 9.6 49.2 62 2.7 36.9
04:40 1018 30.06 847 25.01 9.5 49.1 62 2.6 36.7
04:45 1018 30.06 847 25.01 9.6 49.3 62 2.7 36.9
04:50 1018 30.06 847 25.01 9.6 49.3 62 2.8 37.1
04:55 1018 30.06 847 25.01 9.6 49.2 62 2.7 36.9
05:00 1018 30.06 847 25.01 9.5 49 63 2.8 37
05:05 1018 30.06 847 25.01 9.4 49 63 2.8 37
05:10 1018 30.06 847 25.01 9.6 49.2 64 3.1 37.6
05:15 1018 30.06 847 25.01 9.7 49.4 64 3.2 37.8
05:20 1018 30.06 847 25.01 9.7 49.4 65 3.4 38.1
05:25 1018 30.06 847 25.01 9.6 49.4 65 3.4 38.1
05:30 1018 30.06 847 25.01 9.7 49.4 66 3.6 38.4
05:35 1018 30.06 848 25.04 9.7 49.4 65 3.5 38.2
05:40 1018 30.06 847 25.01 9.7 49.5 65 3.5 38.3
05:45 1018 30.06 847 25.01 9.8 49.6 65 3.5 38.4
05:50 1018 30.06 847 25.01 9.7 49.5 65 3.6 38.4
05:55 1018 30.06 847 25.01 9.7 49.5 65 3.6 38.4
06:00 1018 30.06 848 25.04 9.8 49.6 65 3.6 38.5
06:05 1018 30.06 848 25.04 9.8 49.6 66 3.6 38.5
06:10 1018 30.06 848 25.04 9.8 49.6 65 3.6 38.4
06:15 1018 30.06 848 25.04 9.9 49.7 65 3.6 38.4
06:20 1018 30.06 848 25.04 9.9 49.8 65 3.7 38.6
06:25 1018 30.06 848 25.04 9.9 49.7 65 3.7 38.6
06:30 1018 30.06 848 25.04 9.8 49.6 66 3.7 38.7
06:35 1018 30.06 848 25.04 9.7 49.5 67 3.9 39
06:40 1018 30.06 848 25.04 9.6 49.2 67 3.8 38.8
06:45 1018 30.06 848 25.04 9.5 49.2 67 3.8 38.9
06:50 1018 30.06 848 25.04 9.5 49 68 3.8 38.9
06:55 1018 30.06 848 25.04 9.4 48.9 69 4 39.1
07:00 1018 30.06 848 25.04 9.3 48.7 70 4.1 39.4
07:05 1018 30.06 848 25.04 9.2 48.5 71 4.1 39.5
07:10 1018 30.06 847 25.01 9 48.2 72 4.2 39.5
07:15 1018 30.06 847 25.01 9 48.2 72 4.1 39.4
07:20 1018 30.06 847 25.01 9 48.2 72 4.2 39.5
07:25 1018 30.06 847 25.01 9.1 48.3 71 4.1 39.4
07:30 1018 30.06 847 25.01 9.2 48.6 71 4.2 39.6
07:35 1018 30.06 847 25.01 9.2 48.6 71 4.3 39.8
07:40 1018 30.06 847 25.01 9.2 48.6 69 3.9 39.1
07:45 1018 30.06 847 25.01 9.4 48.9 66 3.5 38.3
07:50 1018 30.06 847 25.01 9.6 49.3 66 3.6 38.5
07:55 1018 30.06 847 25.01 9.7 49.4 65 3.5 38.4
08:00 1018 30.06 847 25.01 9.8 49.7 65 3.5 38.4
08:05 1018 30.06 847 25.01 10 49.9 64 3.4 38.2
08:10 1018 30.06 847 25.01 10 50 64 3.5 38.2
08:15 1018 30.06 847 25.01 10.4 50.8 62 3.5 38.3
08:20 1018 30.06 847 25.01 11.2 52.1 60 3.8 38.8
08:25 1018 30.06 847 25.01 11.1 51.9 61 3.8 38.8
08:30 1018 30.06 847 25.01 10.9 51.7 60 3.5 38.2
08:35 1018 30.06 847 25.01 10.7 51.2 60 3.3 38
08:40 1018 30.06 847 25.01 11.2 52.2 57 3.2 37.7
08:45 1018 30.06 847 25.01 11.5 52.8 57 3.3 38
08:50 1018 30.06 847 25.01 11.3 52.4 57 3.1 37.7
08:55 1018 30.06 847 25.01 11.5 52.7 57 3.3 37.9
09:00 1018 30.06 847 25.01 11.4 52.6 58 3.4 38.2
09:05 1018 30.06 847 25.01 11.4 52.5 57 3.3 37.9
09:10 1018 30.06 847 25.01 11.3 52.3 57 3.1 37.5
09:15 1018 30.06 847 25.01 11.7 53 55 3.1 37.5
09:20 1018 30.06 847 25.01 11.9 53.5 55 3.2 37.7
09:25 1018 30.06 847 25.01 11.9 53.3 55 3.3 37.9
09:30 1018 30.06 847 25.01 11.7 53.1 55 3.1 37.6
09:35 1018 30.06 847 25.01 12.1 53.7 54 3.1 37.5
09:40 1018 30.06 847 25.01 11.8 53.2 56 3.2 37.8
09:45 1018 30.06 847 25.01 11.8 53.2 54 2.9 37.1
09:50 1018 30.06 847 25.01 12.3 54.1 53 3 37.4
09:55 1018 30.06 847 25.01 12.4 54.3 53 3.2 37.8
10:00 1017 30.03 847 25.01 12.6 54.7 51 2.8 37.1
10:05 1017 30.03 847 25.01 13.1 55.6 51 3.2 37.7
10:10 1017 30.03 847 25.01 12.9 55.1 51 3.1 37.6
10:15 1017 30.03 847 25.01 13.3 56 48 2.8 37
10:20 1017 30.03 847 25.01 13.9 57 48 3.1 37.6
10:25 1017 30.03 847 25.01 13.8 56.8 50 3.5 38.4
10:30 1017 30.03 847 25.01 13.9 56.9 49 3.3 38
10:35 1017 30.03 847 25.01 13.8 56.8 49 3.4 38.1
10:40 1017 30.03 847 25.01 13.5 56.3 51 3.5 38.3
10:45 1017 30.03 846 24.98 13.3 55.9 50 3.2 37.8
10:50 1017 30.03 846 24.98 13.5 56.3 51 3.5 38.3
10:55 1017 30.03 846 24.98 13.3 56 52 3.8 38.8
11:00 1017 30.03 846 24.98 13.5 56.2 50 3.4 38.1
11:05 1017 30.03 846 24.98 13.7 56.7 50 3.6 38.4
11:10 1017 30.03 846 24.98 13.6 56.4 53 4.3 39.8
11:15 1017 30.03 846 24.98 13.5 56.3 57 5.3 41.6
11:20 1017 30.03 846 24.98 13.2 55.7 59 5.5 41.8
11:25 1017 30.03 846 24.98 12.9 55.3 60 5.5 41.8
11:30 1017 30.03 846 24.98 12.8 55.1 61 5.5 42
11:35 1017 30.03 846 24.98 12.9 55.2 60 5.5 41.9
11:40 1017 30.03 846 24.98 12.9 55.2 60 5.5 41.8
11:45 1017 30.03 846 24.98 12.7 54.9 61 5.4 41.7
11:50 1017 30.03 846 24.98 12.4 54.3 62 5.3 41.5
11:55 1017 30.03 846 24.98 12.2 54 63 5.3 41.6
12:00 1017 30.03 846 24.98 12.3 54.2 63 5.6 42.1
12:05 1017 30.03 846 24.98 12.3 54.2 63 5.6 42.1
12:10 1017 30.03 846 24.98 12.5 54.5 63 5.7 42.2
12:15 1017 30.03 846 24.98 12.5 54.5 63 5.7 42.3
12:20 1017 30.03 846 24.98 12.5 54.4 63 5.7 42.3
12:25 1017 30.03 846 24.98 12.5 54.4 62 5.5 42
12:30 1017 30.03 846 24.98 12.5 54.6 63 5.7 42.3
12:35 1017 30.03 846 24.98 12.4 54.4 65 6.2 43.1
12:40 1017 30.03 846 24.98 12.3 54.1 66 6.2 43.2
12:45 1017 30.03 846 24.98 12.2 54 66 6.1 43
12:50 1017 30.03 846 24.98 12.3 54.1 66 6.2 43.2
12:55 1017 30.03 846 24.98 12.3 54.2 67 6.4 43.5
13:00 1017 30.03 846 24.98 12.4 54.4 65 6.2 43.2
13:05 1017 30.03 846 24.98 12.4 54.4 65 6 42.8
13:10 1017 30.03 846 24.98 12.4 54.4 65 6 42.9
13:15 1017 30.03 846 24.98 12.4 54.3 66 6.3 43.3
13:20 1016 30 846 24.98 12.4 54.2 67 6.5 43.7
13:25 1016 30 846 24.98 12.4 54.4 69 6.9 44.5
13:30 1016 30 846 24.98 12.4 54.2 70 7.1 44.8
13:35 1016 30 846 24.98 12.3 54.1 70 6.9 44.5
13:40 1016 30 845 24.95 12.1 53.7 68 6.5 43.7
13:45 1016 30 845 24.95 12 53.6 69 6.4 43.6
13:50 1016 30 845 24.95 11.8 53.3 68 6.2 43.1
13:55 1016 30 845 24.95 11.6 53 68 5.9 42.6
14:00 1016 30 845 24.95 11.7 53 67 5.8 42.4
14:05 1016 30 845 24.95 11.7 53 69 6.2 43.2
14:10 1016 30 845 24.95 11.7 53 70 6.4 43.6
14:15 1016 30 845 24.95 11.5 52.6 72 6.7 44.1
14:20 1016 30 845 24.95 11.5 52.8 70 6.3 43.4
14:25 1016 30 845 24.95 11.5 52.6 71 6.3 43.4
14:30 1016 30 845 24.95 11.5 52.7 73 6.9 44.4
14:35 1016 30 845 24.95 11.7 53 70 6.5 43.8
14:40 1016 30 845 24.95 11.8 53.2 69 6.3 43.4
14:45 1016 30 845 24.95 11.8 53.2 69 6.4 43.5
14:50 1016 30 845 24.95 11.9 53.4 69 6.4 43.5
14:55 1016 30 845 24.95 11.9 53.4 68 6.1 43.1
15:00 1016 30 845 24.95 11.9 53.5 69 6.5 43.6
15:05 1016 30 845 24.95 11.9 53.5 68 6.2 43.2
15:10 1016 30 845 24.95 12.1 53.8 66 6.1 42.9
15:15 1016 30 845 24.95 12.3 54.1 67 6.4 43.4
15:20 1016 30 845 24.95 12.2 54 68 6.5 43.8
15:25 1016 30 845 24.95 12.3 54.2 67 6.5 43.7
15:30 1016 30 845 24.95 12.4 54.3 68 6.8 44.2
15:35 1016 30 845 24.95 12.7 54.9 67 6.9 44.3
15:40 1016 30 845 24.95 13 55.3 67 7 44.7
15:45 1016 30 845 24.95 13.1 55.5 66 6.9 44.5
15:50 1016 30 845 24.95 13.1 55.5 66 6.9 44.4
15:55 1016 30 845 24.95 12.9 55.1 66 6.8 44.2
16:00 1016 30 845 24.95 12.6 54.6 68 6.8 44.2
16:05 1016 30 845 24.95 12.7 54.9 66 6.6 43.9
16:10 1016 30 845 24.95 12.6 54.8 67 6.7 44.1
16:15 1016 30 845 24.95 12.8 55 65 6.5 43.7
16:20 1015 29.97 845 24.95 12.9 55.3 66 6.8 44.3
16:25 1015 29.97 845 24.95 13.1 55.5 65 6.6 43.9
16:30 1015 29.97 845 24.95 13 55.5 64 6.5 43.7
16:35 1015 29.97 845 24.95 12.9 55.2 65 6.6 43.9
16:40 1015 29.97 845 24.95 13 55.4 64 6.4 43.5
16:45 1015 29.97 845 24.95 12.9 55.3 65 6.5 43.7
16:50 1015 29.97 845 24.95 12.8 55.1 65 6.5 43.7
16:55 1015 29.97 845 24.95 12.9 55.2 65 6.5 43.7
17:00 1015 29.97 845 24.95 12.9 55.1 65 6.5 43.7
17:05 1015 29.97 845 24.95 12.8 55 65 6.4 43.5
17:10 1015 29.97 844 24.92 12.8 55 65 6.5 43.7
17:15 1015 29.97 844 24.92 12.8 55 65 6.5 43.7
17:20 1015 29.97 844 24.92 12.8 55 65 6.4 43.5
17:25 1015 29.97 844 24.92 12.8 55 64 6.2 43.1
17:30 1015 29.97 844 24.92 12.7 54.8 64 6.2 43.1
17:35 1015 29.97 844 24.92 12.7 54.8 64 6.1 43
17:40 1015 29.97 844 24.92 12.7 54.8 64 6.2 43.1
17:45 1015 29.97 844 24.92 12.6 54.6 66 6.3 43.4
17:50 1015 29.97 844 24.92 12.5 54.5 68 6.9 44.4
17:55 1015 29.97 844 24.92 12.4 54.3 69 7 44.6
18:00 1015 29.97 844 24.92 12.3 54.1 70 6.9 44.5
18:05 1015 29.97 844 24.92 12.1 53.8 71 7 44.7
18:10 1015 29.97 844 24.92 12.1 53.7 70 6.8 44.3
18:15 1015 29.97 844 24.92 12 53.6 71 6.9 44.5
18:20 1015 29.97 844 24.92 12 53.5 71 6.8 44.3
18:25 1015 29.97 844 24.92 11.9 53.4 70 6.7 44.1
18:30 1015 29.97 844 24.92 11.9 53.4 70 6.7 44.1
18:35 1015 29.97 844 24.92 11.9 53.5 70 6.6 43.9
18:40 1015 29.97 844 24.92 12 53.5 70 6.6 43.9
18:45 1015 29.97 844 24.92 12 53.6 69 6.6 43.8
18:50 1015 29.97 844 24.92 11.9 53.5 70 6.8 44.2
18:55 1015 29.97 844 24.92 11.8 53.2 71 6.8 44.2
19:00 1015 29.97 844 24.92 11.8 53.2 71 6.7 44.1
19:05 1015 29.97 844 24.92 11.7 53 72 6.8 44.3
19:10 1015 29.97 844 24.92 11.6 52.9 71 6.6 43.9
19:15 1015 29.97 844 24.92 11.6 53 72 6.7 44.1
19:20 1015 29.97 844 24.92 11.6 52.9 72 6.7 44.1
19:25 1015 29.97 844 24.92 11.6 52.9 71 6.5 43.8
19:30 1015 29.97 844 24.92 11.6 52.9 71 6.5 43.7
19:35 1015 29.97 844 24.92 11.6 52.9 72 6.8 44.2
19:40 1015 29.97 844 24.92 11.5 52.8 72 6.6 43.9
19:45 1015 29.97 844 24.92 11.5 52.8 70 6.3 43.4
19:50 1015 29.97 844 24.92 11.6 52.8 69 6.2 43.2
19:55 1015 29.97 844 24.92 11.7 53 71 6.6 43.8
20:00 1015 29.97 844 24.92 11.6 52.9 70 6.5 43.6
20:05 1015 29.97 844 24.92 11.6 52.9 70 6.4 43.5
20:10 1015 29.97 844 24.92 11.5 52.8 71 6.5 43.7
20:15 1015 29.97 844 24.92 11.3 52.3 76 7.3 45.1
20:20 1015 29.97 844 24.92 10.8 51.5 77 6.9 44.4
20:25 1015 29.97 844 24.92 10.6 51.2 77 6.7 44.1
20:30 1015 29.97 844 24.92 10.7 51.2 75 6.6 43.8
20:35 1015 29.97 844 24.92 10.9 51.6 75 6.6 43.9
20:40 1015 29.97 844 24.92 10.9 51.6 75 6.7 44.1
20:45 1015 29.97 844 24.92 10.6 51.2 76 6.6 43.9
20:50 1015 29.97 844 24.92 10.6 51 74 6.1 43
20:55 1015 29.97 844 24.92 10.8 51.5 74 6.3 43.3
21:00 1015 29.97 844 24.92 10.8 51.4 75 6.5 43.8
21:05 1015 29.97 844 24.92 10.5 50.9 78 6.8 44.3
21:10 1015 29.97 844 24.92 10.3 50.5 78 6.6 43.8
21:15 1015 29.97 844 24.92 10.3 50.6 77 6.4 43.5
21:20 1015 29.97 844 24.92 10.3 50.6 78 6.6 43.9
21:25 1015 29.97 844 24.92 10.3 50.5 78 6.6 43.9
21:30 1015 29.97 844 24.92 10.1 50.3 78 6.5 43.6
21:35 1015 29.97 844 24.92 10.1 50.2 78 6.4 43.5
21:40 1015 29.97 844 24.92 10.1 50.2 77 6.4 43.4
21:45 1015 29.97 844 24.92 10.2 50.4 77 6.3 43.3
21:50 1015 29.97 844 24.92 10.3 50.6 76 6.3 43.4
21:55 1014 29.94 844 24.92 10.3 50.6 76 6.3 43.3
22:00 1014 29.94 844 24.92 10.4 50.7 75 6.1 43
22:05 1014 29.94 844 24.92 10.5 50.9 74 6.1 43
22:10 1014 29.94 844 24.92 10.6 51 74 6.1 43
22:15 1014 29.94 844 24.92 10.5 50.8 75 6.3 43.3
22:20 1014 29.94 844 24.92 10.2 50.3 77 6.4 43.5
22:25 1014 29.94 843 24.89 10 50 76 5.9 42.7
22:30 1014 29.94 843 24.89 10.2 50.3 75 5.9 42.7
22:35 1014 29.94 843 24.89 10.3 50.6 75 6 42.9
22:40 1014 29.94 843 24.89 10.4 50.6 74 6 42.8
22:45 1014 29.94 843 24.89 10.3 50.6 75 6.1 43
22:50 1014 29.94 843 24.89 10.3 50.5 74 5.9 42.5
22:55 1014 29.94 843 24.89 10.4 50.6 74 5.9 42.6
23:00 1014 29.94 843 24.89 10.2 50.4 75 6 42.8
23:05 1014 29.94 843 24.89 10 50.1 75 5.9 42.6
23:10 1014 29.94 843 24.89 9.8 49.6 77 6 42.8
23:15 1014 29.94 843 24.89 9.6 49.3 77 5.8 42.4
23:20 1014 29.94 843 24.89 9.8 49.6 77 5.9 42.6
23:25 1014 29.94 843 24.89 9.4 48.8 79 6 42.8
23:30 1014 29.94 843 24.89 9.2 48.5 78 5.6 42.1
23:35 1014 29.94 843 24.89 9.3 48.7 78 5.7 42.3
23:40 1014 29.94 843 24.89 9 48.3 79 5.5 41.9
23:45 1014 29.94 843 24.89 9 48.2 78 5.3 41.6
23:50 1014 29.94 843 24.89 9.3 48.7 76 5.4 41.6
23:55 1014 29.94 843 24.89 9.3 48.8 77 5.5 42
24:00 1014 29.94 843 24.89 9.3 48.8 75 5.1 41.1